Time;durP1;ratioP1;P1;durP2;ratioP2;P2;SDS_P1;SDS_P2;PMS_P1;PMS_P2;Temp;Humidity;BMP_temperature;BMP_pressure;BME280_temperature;BME280_humidity;BME280_pressure;Samples;Min_cycle;Max_cycle;Signal;HPM_P1;HPM_P2
2022/08/19 00:00:20;;;;;;;2.47;2.28;;;17.70;63.00;;;;;;5050699;28;20246;-43
2022/08/19 00:02:51;;;;;;;2.80;2.20;;;17.70;63.90;;;;;;5030924;28;20661;-41
2022/08/19 00:05:24;;;;;;;2.40;2.00;;;17.70;63.20;;;;;;5033164;28;20196;-37
2022/08/19 00:07:55;;;;;;;2.50;2.03;;;17.70;63.20;;;;;;5030481;28;20216;-36
2022/08/19 00:10:26;;;;;;;2.67;2.17;;;17.70;63.00;;;;;;5030640;28;20271;-38
2022/08/19 00:12:56;;;;;;;2.55;1.90;;;17.80;63.00;;;;;;5031146;28;20786;-35
2022/08/19 00:15:27;;;;;;;2.47;2.10;;;17.80;63.00;;;;;;5043754;28;20196;-36
2022/08/19 00:17:58;;;;;;;2.85;2.08;;;17.80;63.10;;;;;;5049410;28;20227;-47
2022/08/19 00:20:31;;;;;;;2.92;2.13;;;17.80;63.40;;;;;;5030978;28;20234;-43
2022/08/19 00:23:03;;;;;;;2.40;2.00;;;17.80;63.40;;;;;;5030018;28;20203;-36
2022/08/19 00:25:36;;;;;;;2.70;2.00;;;17.90;63.50;;;;;;5030377;28;20207;-35
2022/08/19 00:28:07;;;;;;;2.90;2.00;;;17.80;63.40;;;;;;5030186;28;20303;-37
2022/08/19 00:30:40;;;;;;;3.17;2.08;;;17.90;63.40;;;;;;5034413;28;20207;-38
2022/08/19 00:33:11;;;;;;;2.20;2.00;;;17.80;63.30;;;;;;5028870;28;20632;-36
2022/08/19 00:35:43;;;;;;;2.42;1.92;;;17.90;63.30;;;;;;5029174;28;20215;-38
2022/08/19 00:38:14;;;;;;;2.38;1.83;;;17.90;63.20;;;;;;5029578;28;20219;-38
2022/08/19 00:40:47;;;;;;;2.35;1.90;;;17.90;63.10;;;;;;5036252;28;20227;-35
2022/08/19 00:43:22;;;;;;;2.40;1.80;;;17.90;63.90;;;;;;5050292;28;20554;-35
2022/08/19 00:45:53;;;;;;;2.85;2.20;;;17.90;63.00;;;;;;5049870;28;20573;-39
2022/08/19 00:48:25;;;;;;;2.00;1.80;;;18.00;62.90;;;;;;5050059;28;20216;-35
2022/08/19 00:50:57;;;;;;;2.45;2.03;;;18.00;62.90;;;;;;5049602;28;20253;-36
2022/08/19 00:53:31;;;;;;;2.72;2.17;;;17.90;62.90;;;;;;5050080;28;20202;-39
2022/08/19 00:56:06;;;;;;;2.58;2.20;;;17.90;62.80;;;;;;5049483;28;20659;-38
2022/08/19 00:58:37;;;;;;;2.42;1.80;;;17.90;62.70;;;;;;5038745;28;20220;-39
2022/08/19 01:01:09;;;;;;;2.47;1.90;;;18.00;62.90;;;;;;5034568;28;20235;-36
2022/08/19 01:03:40;;;;;;;2.42;1.83;;;18.00;63.00;;;;;;5045276;28;20253;-39
2022/08/19 01:06:12;;;;;;;2.22;1.67;;;18.00;63.10;;;;;;5048949;28;20196;-39
2022/08/19 01:08:43;;;;;;;1.92;1.80;;;18.00;63.10;;;;;;5049622;28;20624;-46
2022/08/19 01:11:14;;;;;;;1.83;1.60;;;18.00;63.00;;;;;;5048855;28;20187;-36
2022/08/19 01:13:46;;;;;;;2.33;1.70;;;18.00;63.00;;;;;;5050077;28;20207;-35
2022/08/19 01:16:19;;;;;;;3.67;1.90;;;18.10;62.90;;;;;;5049255;28;20750;-36
2022/08/19 01:18:50;;;;;;;3.55;1.90;;;18.00;62.90;;;;;;5049972;28;20737;-36
2022/08/19 01:21:42;;;;;;;2.45;1.67;;;18.10;62.90;;;;;;5049200;28;20212;-38
2022/08/19 01:24:15;;;;;;;2.08;1.88;;;18.10;62.90;;;;;;5034079;28;20195;-35
2022/08/19 01:26:47;;;;;;;2.55;1.73;;;18.10;62.80;;;;;;5029432;28;20192;-35
2022/08/19 01:29:17;;;;;;;2.17;1.80;;;18.10;62.70;;;;;;5029690;28;20196;-42
2022/08/19 01:31:48;;;;;;;1.60;1.50;;;18.10;62.80;;;;;;5036149;28;20208;-40
2022/08/19 01:34:19;;;;;;;3.50;1.73;;;18.10;63.00;;;;;;5028873;28;20284;-38
2022/08/19 01:36:51;;;;;;;2.53;1.60;;;18.10;63.00;;;;;;5034044;28;20199;-35
2022/08/19 01:39:25;;;;;;;1.90;1.73;;;18.10;62.90;;;;;;5041140;28;20229;-37
2022/08/19 01:41:56;;;;;;;1.98;1.55;;;18.10;62.90;;;;;;5048719;28;20344;-36
2022/08/19 01:44:27;;;;;;;3.63;1.73;;;18.10;62.90;;;;;;5033699;28;20700;-35
2022/08/19 01:46:58;;;;;;;3.22;2.10;;;18.10;62.80;;;;;;5038923;28;20223;-36
2022/08/19 01:49:29;;;;;;;2.72;2.00;;;18.10;62.80;;;;;;5049582;28;20663;-36
2022/08/19 01:52:02;;;;;;;2.17;1.80;;;18.10;62.70;;;;;;5048851;28;20195;-35
2022/08/19 01:54:34;;;;;;;2.30;1.77;;;18.20;62.70;;;;;;5048515;28;20200;-37
2022/08/19 01:57:09;;;;;;;4.22;2.08;;;18.20;62.70;;;;;;5048290;28;20215;-36
2022/08/19 01:59:46;;;;;;;3.42;1.90;;;18.20;62.60;;;;;;5038726;28;20655;-39
2022/08/19 02:02:17;;;;;;;2.40;1.52;;;18.20;62.50;;;;;;5037299;28;20227;-40
2022/08/19 02:04:47;;;;;;;3.83;1.95;;;18.20;62.50;;;;;;5029508;28;20196;-36
2022/08/19 02:07:20;;;;;;;4.93;1.88;;;18.20;62.50;;;;;;5031271;28;20346;-36
2022/08/19 02:09:53;;;;;;;3.63;1.80;;;18.20;62.50;;;;;;5034187;28;20683;-40
2022/08/19 02:12:24;;;;;;;4.20;1.77;;;18.20;62.50;;;;;;5051020;28;20199;-37
2022/08/19 02:14:54;;;;;;;4.18;2.20;;;18.20;62.50;;;;;;5052686;28;20205;-36
2022/08/19 02:17:25;;;;;;;4.30;2.40;;;18.20;62.50;;;;;;5049505;28;20211;-44
2022/08/19 02:19:56;;;;;;;5.03;1.75;;;18.20;62.50;;;;;;5052720;28;20195;-39
2022/08/19 02:22:27;;;;;;;3.17;1.63;;;18.20;62.50;;;;;;5053301;28;20222;-40
2022/08/19 02:25:00;;;;;;;3.55;1.90;;;18.30;62.50;;;;;;5052629;28;20199;-41
2022/08/19 02:27:31;;;;;;;4.70;1.90;;;18.20;63.10;;;;;;5052328;28;20414;-36
2022/08/19 02:30:02;;;;;;;2.70;1.77;;;18.20;62.40;;;;;;5050669;28;20616;-35
2022/08/19 02:32:33;;;;;;;2.42;1.60;;;18.20;62.40;;;;;;5041826;28;20214;-36
2022/08/19 02:35:04;;;;;;;2.67;1.80;;;18.20;62.40;;;;;;5032604;28;20200;-36
2022/08/19 02:40:23;;;;;;;2.28;1.48;;;18.20;62.30;;;;;;5035696;28;20217;-37
2022/08/19 02:42:54;;;;;;;3.22;2.22;;;18.20;62.40;;;;;;5050284;28;20203;-37
2022/08/19 02:45:25;;;;;;;3.53;2.17;;;18.20;62.40;;;;;;5052859;28;20666;-35
2022/08/19 02:47:56;;;;;;;4.53;2.05;;;18.20;62.30;;;;;;5052445;28;20222;-36
2022/08/19 02:50:27;;;;;;;4.28;1.90;;;18.30;62.40;;;;;;5052596;28;20611;-36
2022/08/19 02:52:58;;;;;;;4.30;2.10;;;18.30;62.40;;;;;;5052263;28;20304;-35
2022/08/19 02:55:30;;;;;;;3.90;2.13;;;18.20;62.30;;;;;;5052867;28;20203;-35
2022/08/19 02:58:01;;;;;;;4.00;1.75;;;18.30;62.30;;;;;;5051449;28;20571;-36
2022/08/19 03:00:32;;;;;;;5.05;1.95;;;18.30;62.30;;;;;;5052567;28;20227;-36
2022/08/19 03:03:03;;;;;;;3.88;1.98;;;18.30;62.30;;;;;;5038501;28;20196;-39
2022/08/19 03:05:34;;;;;;;4.57;2.25;;;18.30;62.20;;;;;;5032083;28;20199;-35
2022/08/19 03:08:05;;;;;;;4.07;2.15;;;18.30;62.20;;;;;;5032100;28;20215;-36
2022/08/19 03:10:46;;;;;;;4.22;1.92;;;18.30;62.20;;;;;;5032236;28;20295;-35
2022/08/19 03:13:19;;;;;;;2.53;1.83;;;18.30;62.20;;;;;;5039277;28;20187;-36
2022/08/19 03:15:50;;;;;;;3.33;1.77;;;18.30;62.20;;;;;;5052306;28;20203;-36
2022/08/19 03:18:21;;;;;;;3.08;1.80;;;18.30;62.20;;;;;;5051136;28;20784;-36
2022/08/19 03:20:54;;;;;;;3.17;1.63;;;18.30;62.20;;;;;;5031909;28;20223;-36
2022/08/19 03:23:25;;;;;;;5.72;2.05;;;18.30;62.10;;;;;;5032261;28;20279;-39
2022/08/19 03:25:58;;;;;;;4.18;2.17;;;18.30;62.10;;;;;;5031383;28;20565;-35
2022/08/19 03:28:29;;;;;;;4.95;2.20;;;18.30;62.10;;;;;;5041677;28;20273;-36
2022/08/19 03:31:01;;;;;;;4.35;1.80;;;18.30;62.00;;;;;;5051737;28;20212;-35
2022/08/19 03:33:33;;;;;;;4.63;1.85;;;18.30;62.00;;;;;;5035835;28;20196;-39
2022/08/19 03:36:09;;;;;;;3.72;2.03;;;18.40;62.10;;;;;;5030997;28;20203;-35
2022/08/19 03:38:41;;;;;;;3.97;2.10;;;18.30;62.00;;;;;;5031482;28;20257;-35
2022/08/19 03:41:16;;;;;;;4.03;1.60;;;18.30;62.00;;;;;;5041215;28;20211;-39
2022/08/19 03:43:48;;;;;;;3.05;1.83;;;18.30;62.00;;;;;;5051081;28;20199;-36
2022/08/19 03:46:22;;;;;;;4.55;2.08;;;18.30;62.00;;;;;;5051002;28;20256;-38
2022/08/19 03:48:55;;;;;;;3.97;2.13;;;18.30;62.00;;;;;;5050879;28;20218;-38
2022/08/19 03:51:27;;;;;;;4.22;1.92;;;18.40;62.10;;;;;;5051738;28;20200;-37
2022/08/19 03:53:59;;;;;;;3.65;1.70;;;18.30;62.10;;;;;;5046558;28;20197;-36
2022/08/19 03:56:32;;;;;;;2.42;1.95;;;18.30;62.10;;;;;;5051266;28;20210;-42
2022/08/19 03:59:02;;;;;;;3.80;1.92;;;18.40;62.20;;;;;;5050815;28;20199;-36
2022/08/19 04:01:33;;;;;;;3.45;1.70;;;18.40;62.10;;;;;;5051636;28;20235;-35
2022/08/19 04:04:04;;;;;;;5.18;2.22;;;18.40;62.10;;;;;;5045662;28;20192;-37
2022/08/19 04:06:37;;;;;;;4.05;1.83;;;18.40;62.10;;;;;;5051468;28;20560;-39
2022/08/19 04:09:10;;;;;;;3.53;1.80;;;18.30;62.10;;;;;;5050670;28;20195;-42
2022/08/19 04:11:44;;;;;;;2.42;1.60;;;18.30;62.00;;;;;;5050461;28;20199;-36
2022/08/19 04:14:16;;;;;;;3.63;1.58;;;18.40;62.10;;;;;;5050692;28;20676;-36
2022/08/19 04:16:48;;;;;;;2.78;1.90;;;18.40;62.10;;;;;;5050230;28;20203;-35
2022/08/19 04:19:20;;;;;;;3.03;1.77;;;18.40;62.10;;;;;;5046485;28;20706;-36
2022/08/19 04:21:53;;;;;;;3.05;1.65;;;18.40;62.10;;;;;;5049632;28;20588;-36
2022/08/19 04:24:24;;;;;;;2.90;1.80;;;18.40;62.10;;;;;;5030382;28;20196;-35
2022/08/19 04:26:57;;;;;;;2.33;1.67;;;18.40;62.10;;;;;;5030248;28;20196;-35
2022/08/19 04:29:29;;;;;;;3.35;1.77;;;18.40;62.10;;;;;;5047847;28;20258;-41
2022/08/19 04:32:00;;;;;;;4.03;1.63;;;18.40;62.10;;;;;;5050536;28;20203;-36
2022/08/19 04:34:32;;;;;;;3.10;1.88;;;18.40;62.00;;;;;;5050857;28;20210;-36
2022/08/19 04:37:03;;;;;;;5.63;1.80;;;18.40;62.10;;;;;;5049960;28;20698;-36
2022/08/19 04:42:41;;;;;;;2.45;1.52;;;18.40;62.10;;;;;;5048569;28;20245;-36
2022/08/19 04:45:15;;;;;;;3.30;1.60;;;18.40;62.00;;;;;;5049497;28;20195;-35
2022/08/19 04:47:46;;;;;;;2.22;1.52;;;18.40;62.00;;;;;;5044342;28;20216;-36
2022/08/19 04:50:17;;;;;;;2.15;1.45;;;18.40;62.00;;;;;;5029596;28;20196;-38
2022/08/19 04:52:48;;;;;;;3.15;1.65;;;18.40;62.10;;;;;;5032004;28;20192;-36
2022/08/19 04:55:19;;;;;;;2.22;1.90;;;18.40;62.00;;;;;;5050081;28;20202;-36
2022/08/19 04:57:52;;;;;;;3.42;2.08;;;18.40;62.00;;;;;;5049695;28;20585;-51
2022/08/19 05:00:26;;;;;;;4.47;1.77;;;18.40;62.00;;;;;;5050554;28;20207;-39
2022/08/19 05:02:57;;;;;;;3.53;1.60;;;18.40;62.00;;;;;;5044040;28;20227;-37
2022/08/19 05:05:27;;;;;;;2.75;1.85;;;18.40;62.00;;;;;;5048385;28;20202;-41
2022/08/19 05:07:58;;;;;;;5.35;2.00;;;18.40;62.00;;;;;;5049238;28;20214;-36
2022/08/19 05:10:30;;;;;;;4.88;1.75;;;18.40;61.90;;;;;;5049277;28;20206;-39
2022/08/19 05:13:02;;;;;;;8.48;2.50;;;18.40;61.90;;;;;;5049530;28;20203;-42
2022/08/19 05:15:33;;;;;;;5.47;2.50;;;18.40;61.40;;;;;;5050229;28;20279;-44
2022/08/19 05:23:37;;;;;;;10.10;2.58;;;18.40;60.80;;;;;;5049140;28;20609;-44
2022/08/19 05:26:10;;;;;;;6.80;2.47;;;18.40;60.60;;;;;;5049611;28;20202;-44
2022/08/19 05:28:42;;;;;;;5.95;2.00;;;18.30;60.30;;;;;;5044873;28;20743;-41
2022/08/19 05:31:13;;;;;;;4.47;1.95;;;18.30;60.20;;;;;;5040006;28;20204;-40
2022/08/19 05:33:44;;;;;;;5.95;2.22;;;18.30;60.10;;;;;;5037582;28;20199;-40
2022/08/19 05:36:15;;;;;;;7.80;2.42;;;18.30;60.00;;;;;;5029898;28;20211;-41
2022/08/19 05:38:45;;;;;;;6.97;2.47;;;18.30;60.00;;;;;;5029630;28;20211;-43
2022/08/19 05:41:19;;;;;;;6.22;2.75;;;18.30;59.90;;;;;;5041050;28;20219;-42
2022/08/19 05:43:52;;;;;;;7.60;2.75;;;18.20;59.80;;;;;;5053557;28;20194;-37
2022/08/19 05:46:23;;;;;;;11.55;5.97;;;18.20;59.80;;;;;;5053253;28;20260;-43
2022/08/19 05:48:55;;;;;;;14.52;7.88;;;18.30;59.80;;;;;;5053785;28;20211;-53
2022/08/19 05:51:27;;;;;;;9.00;5.15;;;18.20;59.70;;;;;;5053317;28;20390;-36
2022/08/19 05:53:57;;;;;;;11.88;4.63;;;18.20;59.60;;;;;;5053213;28;20191;-36
2022/08/19 05:56:30;;;;;;;11.40;4.32;;;18.20;59.60;;;;;;5052902;28;20211;-40
2022/08/19 05:59:02;;;;;;;11.50;6.07;;;18.20;59.60;;;;;;5053540;28;20247;-36
2022/08/19 06:01:33;;;;;;;20.77;14.95;;;18.20;59.60;;;;;;5053480;28;20698;-37
2022/08/19 06:04:04;;;;;;;20.80;13.90;;;18.10;59.70;;;;;;5041786;28;20207;-47
2022/08/19 06:06:35;;;;;;;18.55;10.82;;;18.10;59.70;;;;;;5033175;28;20200;-36
2022/08/19 06:09:07;;;;;;;10.85;5.57;;;18.00;59.70;;;;;;5032621;28;20196;-35
2022/08/19 06:11:40;;;;;;;11.75;4.22;;;18.00;59.80;;;;;;5047002;28;20191;-39
2022/08/19 06:14:19;;;;;;;7.47;4.07;;;18.00;59.90;;;;;;5052465;28;20191;-40
2022/08/19 06:16:50;;;;;;;8.20;4.00;;;17.90;59.90;;;;;;5053373;28;20206;-46
2022/08/19 06:19:22;;;;;;;9.63;4.15;;;17.90;60.00;;;;;;5052504;28;20197;-38
2022/08/19 06:21:53;;;;;;;9.70;5.85;;;17.80;60.00;;;;;;5053329;28;20238;-35
2022/08/19 06:24:25;;;;;;;10.48;4.80;;;17.70;60.10;;;;;;5050962;28;20204;-43
2022/08/19 06:26:58;;;;;;;9.43;5.10;;;17.70;60.20;;;;;;5051124;28;20195;-45
2022/08/19 06:29:31;;;;;;;7.75;3.92;;;17.70;60.40;;;;;;5038411;28;20193;-36
2022/08/19 06:32:04;;;;;;;7.55;3.83;;;17.60;60.40;;;;;;5049226;28;20286;-36
2022/08/19 06:34:36;;;;;;;10.25;4.40;;;17.60;60.60;;;;;;5038562;28;20196;-35
2022/08/19 06:37:07;;;;;;;7.15;4.53;;;17.50;60.60;;;;;;5032363;28;20315;-36
2022/08/19 06:39:42;;;;;;;9.13;4.50;;;17.50;60.80;;;;;;5032639;28;20670;-36
2022/08/19 06:42:16;;;;;;;10.63;5.85;;;17.50;60.90;;;;;;5051513;28;20252;-39
2022/08/19 06:44:49;;;;;;;8.50;5.22;;;17.40;61.80;;;;;;5052682;28;20196;-36
2022/08/19 06:47:23;;;;;;;5.88;3.83;;;17.40;61.10;;;;;;5052181;28;20230;-45
2022/08/19 06:50:00;;;;;;;12.20;7.22;;;17.40;62.00;;;;;;5052405;28;20206;-36
2022/08/19 06:52:30;;;;;;;27.70;20.90;;;17.30;61.20;;;;;;5051202;28;20577;-36
2022/08/19 06:55:01;;;;;;;168.93;104.25;;;17.30;61.30;;;;;;5051666;28;20198;-36
2022/08/19 06:57:33;;;;;;;159.07;104.50;;;17.30;61.50;;;;;;5050959;28;20230;-36
2022/08/19 07:00:11;;;;;;;88.57;62.25;;;17.20;61.70;;;;;;5051401;28;20283;-36
2022/08/19 07:02:41;;;;;;;40.15;28.15;;;17.20;61.90;;;;;;5052381;28;20231;-35
2022/08/19 07:05:12;;;;;;;20.85;14.93;;;17.20;62.10;;;;;;5034349;28;20656;-36
2022/08/19 07:07:43;;;;;;;18.27;12.88;;;17.10;62.30;;;;;;5032739;28;20573;-38
2022/08/19 07:10:14;;;;;;;16.95;12.75;;;17.10;62.50;;;;;;5031616;28;20192;-35
2022/08/19 07:12:45;;;;;;;17.45;11.23;;;17.10;62.60;;;;;;5032881;28;20211;-35
2022/08/19 07:15:17;;;;;;;9.65;8.38;;;17.00;62.70;;;;;;5039430;28;20216;-35
2022/08/19 07:17:48;;;;;;;13.05;9.18;;;17.00;62.90;;;;;;5052064;28;20219;-35
2022/08/19 07:20:19;;;;;;;15.15;12.25;;;17.00;63.00;;;;;;5051526;28;20206;-36
2022/08/19 07:22:50;;;;;;;17.52;14.55;;;17.00;63.00;;;;;;5052279;28;20832;-36
2022/08/19 07:25:21;;;;;;;16.70;14.35;;;17.00;63.00;;;;;;5051653;28;21131;-36
2022/08/19 07:27:53;;;;;;;15.95;11.88;;;16.90;63.00;;;;;;5052018;28;20234;-35
2022/08/19 07:30:25;;;;;;;12.00;8.57;;;17.00;63.20;;;;;;5051892;28;20199;-36
2022/08/19 07:32:56;;;;;;;13.68;11.07;;;16.90;63.30;;;;;;5051994;28;20203;-40
2022/08/19 07:35:28;;;;;;;16.92;11.23;;;16.90;63.40;;;;;;5061953;28;20213;-36
2022/08/19 07:37:58;;;;;;;19.75;15.88;;;16.90;63.50;;;;;;5072184;28;20298;-36
2022/08/19 07:40:29;;;;;;;13.05;10.10;;;16.90;63.70;;;;;;5072007;28;20201;-37
2022/08/19 07:43:00;;;;;;;9.50;6.78;;;16.80;63.70;;;;;;5071536;28;20226;-36
2022/08/19 07:45:32;;;;;;;12.40;8.57;;;16.80;63.90;;;;;;5071807;28;20195;-35
2022/08/19 07:48:03;;;;;;;11.77;6.93;;;16.80;64.00;;;;;;5072022;28;20222;-41
2022/08/19 07:50:34;;;;;;;9.57;5.82;;;16.80;64.10;;;;;;5071436;28;20646;-36
2022/08/19 07:53:05;;;;;;;9.93;7.85;;;16.80;64.30;;;;;;5071903;28;20195;-36
2022/08/19 07:55:36;;;;;;;12.02;10.88;;;16.70;64.30;;;;;;5071673;28;20209;-35
2022/08/19 07:58:07;;;;;;;10.32;9.25;;;16.70;64.50;;;;;;5071562;28;20215;-36
2022/08/19 08:00:40;;;;;;;10.48;8.82;;;16.70;64.60;;;;;;5067211;28;20211;-35
2022/08/19 08:03:11;;;;;;;20.13;14.02;;;16.70;64.70;;;;;;5051641;28;20233;-36
2022/08/19 08:11:16;;;;;;;10.82;7.05;;;16.70;65.10;;;;;;5071580;28;20234;-35
2022/08/19 08:13:48;;;;;;;10.02;7.68;;;16.60;65.20;;;;;;5071363;28;20209;-42
2022/08/19 08:16:20;;;;;;;7.80;6.80;;;16.60;65.30;;;;;;5071250;28;20288;-35
2022/08/19 08:18:51;;;;;;;9.63;6.70;;;16.60;65.30;;;;;;5048611;28;20204;-35
2022/08/19 08:21:22;;;;;;;10.63;6.57;;;16.70;65.40;;;;;;5046837;28;20206;-35
2022/08/19 08:23:55;;;;;;;8.43;6.22;;;16.60;65.20;;;;;;5051248;28;20227;-39
2022/08/19 08:26:26;;;;;;;8.75;6.45;;;16.70;65.20;;;;;;5051677;28;20287;-43
2022/08/19 08:28:57;;;;;;;9.90;6.95;;;16.70;65.00;;;;;;5050747;28;20305;-35
2022/08/19 08:31:30;;;;;;;7.25;6.45;;;16.70;65.00;;;;;;5051030;28;20200;-35
2022/08/19 08:34:00;;;;;;;9.02;7.15;;;16.70;64.90;;;;;;5051276;28;20679;-35
2022/08/19 08:36:33;;;;;;;8.25;6.15;;;16.80;64.80;;;;;;5049961;28;20579;-37
2022/08/19 08:39:04;;;;;;;9.50;6.28;;;16.80;64.70;;;;;;5050881;28;20222;-35
2022/08/19 08:41:43;;;;;;;8.75;6.30;;;16.80;64.70;;;;;;5050899;28;20283;-36
2022/08/19 08:44:20;;;;;;;8.82;6.13;;;16.80;64.60;;;;;;5050769;28;20195;-36
2022/08/19 08:46:56;;;;;;;9.32;5.90;;;16.80;64.50;;;;;;5050694;28;20203;-36
2022/08/19 08:49:39;;;;;;;7.25;5.70;;;16.80;64.40;;;;;;5050912;28;20630;-38
2022/08/19 08:52:13;;;;;;;8.13;5.82;;;16.80;63.70;;;;;;5051266;28;20211;-36
2022/08/19 08:54:48;;;;;;;8.40;5.75;;;16.90;64.30;;;;;;5050834;28;20218;-36
2022/08/19 08:57:22;;;;;;;8.52;5.85;;;16.90;64.30;;;;;;5050625;28;20219;-37
2022/08/19 08:59:56;;;;;;;7.10;5.55;;;16.90;64.20;;;;;;5050609;28;20645;-36
2022/08/19 09:02:28;;;;;;;8.63;5.68;;;16.90;64.10;;;;;;5030992;28;20224;-38
2022/08/19 09:04:59;;;;;;;6.32;5.47;;;16.90;64.00;;;;;;5033520;28;20196;-36
2022/08/19 09:07:44;;;;;;;7.53;4.90;;;16.90;64.00;;;;;;5070494;28;20222;-35
2022/08/19 09:10:24;;;;;;;6.28;5.68;;;16.90;64.70;;;;;;5069827;28;20191;-36
2022/08/19 09:13:01;;;;;;;6.70;5.38;;;16.90;63.90;;;;;;5070092;28;20281;-36
2022/08/19 09:15:37;;;;;;;6.43;5.70;;;16.90;63.90;;;;;;5067138;28;20198;-38
2022/08/19 09:18:10;;;;;;;7.05;5.38;;;16.90;63.90;;;;;;5050425;28;20215;-37
2022/08/19 09:20:41;;;;;;;5.85;5.28;;;16.90;63.80;;;;;;5057271;28;20195;-36
2022/08/19 09:23:12;;;;;;;6.10;5.18;;;16.90;63.80;;;;;;5070161;28;20233;-36
2022/08/19 09:25:43;;;;;;;6.10;5.05;;;16.90;63.80;;;;;;5070022;28;20203;-37
2022/08/19 09:28:14;;;;;;;6.82;5.78;;;16.90;63.80;;;;;;5070114;28;20223;-36
2022/08/19 09:30:45;;;;;;;5.72;4.93;;;16.90;63.70;;;;;;5063798;28;20730;-36
2022/08/19 09:33:17;;;;;;;5.80;4.65;;;16.90;63.60;;;;;;5049982;28;20195;-36
2022/08/19 09:35:48;;;;;;;5.47;4.97;;;16.90;63.60;;;;;;5056513;28;20227;-36
2022/08/19 09:38:19;;;;;;;8.70;5.63;;;16.90;63.50;;;;;;5070260;28;20215;-39
2022/08/19 09:40:49;;;;;;;5.90;5.30;;;16.90;63.50;;;;;;5046561;28;20549;-45
2022/08/19 09:43:21;;;;;;;5.07;4.22;;;16.90;63.60;;;;;;5043834;28;20219;-45
2022/08/19 09:45:51;;;;;;;5.72;4.80;;;17.00;63.60;;;;;;5041100;28;20224;-40
2022/08/19 09:48:24;;;;;;;8.45;5.05;;;16.90;63.50;;;;;;5029964;28;20223;-35
2022/08/19 09:50:54;;;;;;;7.00;5.20;;;16.90;63.50;;;;;;5029252;28;20193;-51
2022/08/19 09:53:26;;;;;;;7.38;4.95;;;16.90;63.50;;;;;;5029719;28;20200;-36
2022/08/19 09:55:58;;;;;;;7.10;4.65;;;16.90;63.50;;;;;;5028983;28;20203;-35
2022/08/19 09:58:29;;;;;;;11.38;5.40;;;17.00;63.50;;;;;;5041297;28;20573;-37
2022/08/19 10:01:02;;;;;;;6.00;4.88;;;17.00;63.50;;;;;;5049283;28;20200;-36
2022/08/19 10:03:36;;;;;;;5.90;4.32;;;16.90;63.40;;;;;;5048848;28;20227;-36
2022/08/19 10:06:08;;;;;;;5.03;4.43;;;17.00;63.40;;;;;;5031219;28;20218;-43
2022/08/19 10:08:39;;;;;;;6.20;4.57;;;17.00;63.40;;;;;;5028741;28;20753;-39
2022/08/19 10:11:11;;;;;;;6.32;4.60;;;16.90;63.30;;;;;;5029559;28;20652;-43
2022/08/19 10:13:41;;;;;;;6.43;4.90;;;16.90;63.30;;;;;;5031779;28;20291;-36
2022/08/19 10:16:15;;;;;;;5.63;4.97;;;16.90;63.30;;;;;;5029043;28;20664;-52
2022/08/19 10:18:48;;;;;;;5.70;4.43;;;17.00;63.40;;;;;;5029367;28;20220;-39
2022/08/19 10:21:21;;;;;;;5.18;4.68;;;16.90;63.30;;;;;;5028983;28;20200;-36
2022/08/19 10:23:54;;;;;;;5.60;4.35;;;16.90;63.30;;;;;;5029168;28;20224;-42
2022/08/19 10:26:27;;;;;;;5.55;4.60;;;16.90;63.30;;;;;;5029049;28;20556;-57
2022/08/19 10:28:58;;;;;;;5.78;4.68;;;16.90;63.20;;;;;;5032802;28;20588;-37
2022/08/19 10:31:30;;;;;;;5.60;4.28;;;17.00;63.30;;;;;;5051695;28;20199;-45
2022/08/19 10:34:03;;;;;;;4.57;4.15;;;17.00;63.20;;;;;;5052766;28;20679;-50
2022/08/19 10:36:38;;;;;;;5.80;4.68;;;17.00;63.20;;;;;;5032918;28;20208;-54
2022/08/19 10:39:12;;;;;;;5.97;4.22;;;17.00;63.20;;;;;;5032902;28;20196;-48
2022/08/19 10:41:44;;;;;;;5.60;4.57;;;17.00;63.10;;;;;;5052431;28;20253;-37
2022/08/19 10:44:16;;;;;;;5.07;4.05;;;17.00;63.10;;;;;;5052064;28;20219;-52
2022/08/19 10:46:47;;;;;;;5.30;4.38;;;16.90;63.00;;;;;;5052324;28;20221;-45
2022/08/19 10:49:20;;;;;;;6.63;4.47;;;16.90;63.00;;;;;;5052700;28;20567;-41
2022/08/19 10:57:23;;;;;;;4.40;4.00;;;16.90;63.00;;;;;;5008335;28;20219;-36
2022/08/19 10:59:54;;;;;;;4.45;4.05;;;17.00;63.10;;;;;;5052962;28;20240;-38
2022/08/19 11:02:25;;;;;;;5.00;3.90;;;17.00;63.10;;;;;;5032889;28;20196;-36
2022/08/19 11:04:57;;;;;;;4.65;4.10;;;17.00;63.00;;;;;;5030974;28;20237;-36
2022/08/19 11:07:28;;;;;;;4.68;3.85;;;17.00;63.00;;;;;;5031159;28;20220;-36
2022/08/19 11:09:59;;;;;;;4.22;3.72;;;17.00;63.00;;;;;;5031554;28;20200;-36
2022/08/19 11:12:29;;;;;;;4.75;4.30;;;17.00;62.90;;;;;;5040620;28;20680;-36
2022/08/19 11:15:00;;;;;;;5.60;4.07;;;17.00;63.00;;;;;;5070935;28;20194;-36
2022/08/19 11:17:31;;;;;;;4.68;4.20;;;17.00;63.00;;;;;;5071022;28;20717;-36
2022/08/19 11:20:05;;;;;;;5.22;3.72;;;16.90;63.00;;;;;;5071170;28;20207;-39
2022/08/19 11:22:36;;;;;;;5.72;3.88;;;17.00;63.80;;;;;;5055996;28;20285;-40
2022/08/19 11:25:07;;;;;;;3.90;3.45;;;17.00;63.00;;;;;;5050812;28;20202;-45
2022/08/19 11:27:44;;;;;;;4.75;3.72;;;17.00;63.00;;;;;;5055687;28;20293;-36
2022/08/19 11:30:16;;;;;;;5.63;4.00;;;16.90;63.00;;;;;;5068432;28;20646;-36
2022/08/19 11:32:47;;;;;;;3.92;3.63;;;17.00;63.00;;;;;;5050657;28;20199;-40
2022/08/19 11:35:22;;;;;;;4.32;3.90;;;17.00;62.90;;;;;;5050604;28;20230;-37
2022/08/19 11:37:53;;;;;;;4.60;3.70;;;17.00;62.90;;;;;;5050049;28;20237;-36
2022/08/19 11:40:24;;;;;;;3.97;3.55;;;17.00;62.90;;;;;;5049635;28;20195;-37
2022/08/19 11:42:58;;;;;;;4.05;3.60;;;17.00;62.90;;;;;;5056890;28;20282;-41
2022/08/19 11:45:29;;;;;;;4.43;3.80;;;17.00;62.90;;;;;;5070986;28;20230;-39
2022/08/19 11:48:00;;;;;;;5.13;4.03;;;16.90;62.80;;;;;;5070419;28;20214;-36
2022/08/19 11:50:33;;;;;;;3.70;3.40;;;16.90;62.90;;;;;;5070698;28;20202;-38
2022/08/19 11:53:03;;;;;;;3.70;3.40;;;16.90;62.90;;;;;;5070435;28;20199;-43
2022/08/19 11:55:34;;;;;;;3.58;3.28;;;16.90;62.90;;;;;;5070368;28;20654;-38
2022/08/19 11:58:06;;;;;;;4.50;3.75;;;16.90;62.90;;;;;;5069952;28;20223;-41
2022/08/19 12:00:37;;;;;;;4.45;3.67;;;16.90;62.90;;;;;;5065226;28;20199;-51
2022/08/19 12:03:08;;;;;;;4.38;3.53;;;16.90;62.80;;;;;;5050050;28;20967;-39
2022/08/19 12:05:43;;;;;;;3.90;3.25;;;16.90;62.80;;;;;;5039599;28;20207;-45
2022/08/19 12:08:15;;;;;;;4.32;3.75;;;16.90;62.80;;;;;;5029939;28;20219;-45
2022/08/19 12:10:46;;;;;;;4.30;3.90;;;16.90;62.80;;;;;;5029594;28;20288;-42
2022/08/19 12:13:18;;;;;;;4.03;3.45;;;16.90;62.80;;;;;;5038458;28;20655;-38
2022/08/19 12:15:49;;;;;;;3.90;3.47;;;16.90;62.80;;;;;;5050002;28;20239;-47
2022/08/19 12:18:20;;;;;;;5.57;3.42;;;16.90;62.80;;;;;;5049926;28;20211;-44
2022/08/19 12:20:54;;;;;;;4.50;3.78;;;16.90;62.80;;;;;;5050153;28;20577;-44
2022/08/19 12:23:25;;;;;;;4.13;3.30;;;16.90;62.90;;;;;;5049915;28;20215;-37
2022/08/19 12:25:56;;;;;;;4.78;3.67;;;16.90;62.80;;;;;;5049873;28;20210;-45
2022/08/19 12:28:28;;;;;;;3.55;3.25;;;16.90;62.80;;;;;;5058252;28;20214;-46
2022/08/19 12:31:00;;;;;;;4.45;3.50;;;16.90;62.80;;;;;;5061830;28;20548;-48
2022/08/19 12:33:31;;;;;;;4.40;3.40;;;16.90;62.80;;;;;;5046372;28;20585;-37
2022/08/19 12:36:09;;;;;;;4.07;3.45;;;16.90;62.70;;;;;;5042357;28;20214;-37
2022/08/19 12:38:40;;;;;;;3.92;3.53;;;16.90;62.70;;;;;;5049067;28;20219;-48
2022/08/19 12:41:14;;;;;;;3.50;2.97;;;16.90;62.70;;;;;;5049254;28;20197;-37
2022/08/19 12:43:45;;;;;;;3.97;3.30;;;16.90;62.70;;;;;;5059326;28;20237;-38
2022/08/19 12:46:16;;;;;;;3.80;3.40;;;16.90;62.70;;;;;;5068699;28;20195;-37
2022/08/19 12:48:46;;;;;;;4.18;3.45;;;16.90;62.70;;;;;;5059807;28;20737;-36
2022/08/19 12:51:20;;;;;;;3.60;3.15;;;16.90;62.70;;;;;;5049270;28;20651;-36
2022/08/19 12:53:51;;;;;;;5.38;3.58;;;16.80;62.60;;;;;;5049173;28;20261;-38
2022/08/19 12:56:22;;;;;;;4.07;3.60;;;16.80;62.70;;;;;;5049345;28;20199;-42
2022/08/19 12:58:52;;;;;;;3.55;3.20;;;16.80;62.70;;;;;;5059715;28;20694;-49
2022/08/19 13:01:24;;;;;;;3.30;3.00;;;16.90;62.80;;;;;;5057938;28;20677;-40
2022/08/19 13:03:54;;;;;;;4.35;2.88;;;16.90;62.80;;;;;;5049702;28;20227;-46
2022/08/19 13:06:27;;;;;;;3.35;2.83;;;16.90;62.70;;;;;;5048902;28;20203;-42
2022/08/19 13:08:58;;;;;;;4.55;3.40;;;16.80;62.60;;;;;;5038243;28;20220;-37
2022/08/19 13:11:32;;;;;;;4.53;3.25;;;16.80;62.60;;;;;;5048685;28;20260;-36
2022/08/19 13:14:03;;;;;;;3.58;3.15;;;16.90;62.60;;;;;;5060087;28;20230;-39
2022/08/19 13:16:34;;;;;;;4.38;3.40;;;16.80;62.60;;;;;;5061506;28;20188;-38
2022/08/19 13:19:05;;;;;;;3.97;3.30;;;16.80;62.60;;;;;;5049047;28;20520;-36
2022/08/19 13:21:38;;;;;;;4.47;3.35;;;16.80;62.60;;;;;;5048744;28;20818;-43
2022/08/19 13:24:09;;;;;;;3.47;3.10;;;16.80;62.60;;;;;;5048326;28;20747;-46
2022/08/19 13:26:39;;;;;;;4.38;3.38;;;16.80;62.60;;;;;;5048568;28;20223;-45
2022/08/19 13:34:44;;;;;;;4.00;3.08;;;16.80;62.60;;;;;;5048872;28;20267;-36
2022/08/19 13:37:40;;;;;;;4.93;3.45;;;16.80;62.50;;;;;;5048844;28;20223;-37